METAR UND TAF INFORMATION

METAR FOR NTAA
ADDS - METARS form results

(0224 UTC 26 June 2022)
Data provider http://aviationweather.gov/metar/data/
 
METAR text: NTAA 260200Z 10010KT 070V140 9999 -RA FEW020 BKN040 24/21 Q1016 WS ALL RWY NOSIG
Conditions at: NTAA (TAHITI-FAAA POLY, PF) observed 0200 UTC 26 June 2022
Temperature: 24.0°C (75°F)
Dewpoint: 21.0°C (70°F) [RH = 83%]
Pressure (altimeter): 30.00 inches Hg (1016.0 mb)
Winds: from the E (100 degrees) at 12 MPH (10 knots; 5.1 m/s)
Visibility: 6 or more miles (10+ km)
Ceiling: 4000 feet AGL
Clouds: few clouds at 2000 feet AGL
broken clouds at 4000 feet AGL
Weather: -RA  (light rain)

METAR text: NTAA 260130Z 07013KT 9999 VCSH FEW020 BKN040 25/21 Q1016 WS ALL RWY NOSIG
Conditions at: NTAA (TAHITI-FAAA POLY, PF) observed 0130 UTC 26 June 2022
Temperature: 25.0°C (77°F)
Dewpoint: 21.0°C (70°F) [RH = 79%]
Pressure (altimeter): 30.00 inches Hg (1016.0 mb)
Winds: from the ENE (70 degrees) at 15 MPH (13 knots; 6.7 m/s)
Visibility: 6 or more miles (10+ km)
Ceiling: 4000 feet AGL
Clouds: few clouds at 2000 feet AGL
broken clouds at 4000 feet AGL
Weather: VCSH  (showers in vicinity)

Forecast for: NTAA (TAHITI-FAAA POLY, PF)
Text: TAF NTAA 252300Z 2600/2706 VRB05KT 9999 FEW020 SCT050
Forecast period: 0000 UTC 26 June 2022 to 0600 UTC 27 June 2022
Forecast type: FROM: standard forecast or significant change
Winds: variable direction winds at 6 MPH (5 knots; 2.6 m/s)
Visibility: 6 or more miles (10+ km)
Ceiling: at least 12,000 feet AGL
Clouds: few clouds at 2000 feet AGL
scattered clouds at 5000 feet AGL
Weather: no significant weather forecast for this period

 FLUGHAFENKARTE

 RUNWAY INFORMATION
Runway 04 Runway length 11360 ft Runway width 148 ft
Runway elevation 5 ft Runway displaced threshold 1120 ft Runway heading 54
Runway 22 Runway length 11360 ft Runway width 148 ft
Runway elevation 5 ft Runway displaced threshold 390 ft Runway heading 234

 AIRPORT FREQUENCIES
Type APP Name APP Frequency 118.1 MHZ
Type ATIS Name ATIS Frequency 128.8 MHZ
Type GND Name GND Frequency 121.9 MHZ
Type TWR Name TWR Frequency 118.1 MHZ

 AIRPORT NEAR NAVIGATION AIDS
Type NDB Name Tahiti Faaa Frequency 305 KHZ
Type VOR-DME Name Tahiti Faaa Frequency 112900 KHZ